createdAt,value
2023-05-19T00:01:20.559Z,96929.78
2023-05-19T00:03:54.975Z,96953.47
2023-05-19T00:06:27.896Z,96960.19
2023-05-19T00:08:58.909Z,96948.53
2023-05-19T00:11:27.841Z,96936.97
2023-05-19T00:13:56.261Z,96952.53
2023-05-19T00:16:25.038Z,96942.56
2023-05-19T00:18:53.458Z,96939.28
2023-05-19T00:21:21.345Z,96944.94
2023-05-19T00:23:48.329Z,96926.66
2023-05-19T00:26:15.474Z,96899.91
2023-05-19T00:28:51.627Z,96909.13
2023-05-19T00:31:18.594Z,96937.75
2023-05-19T00:33:45.634Z,96900.44
2023-05-19T00:36:13.304Z,96931.63
2023-05-19T00:38:40.226Z,96923.06
2023-05-19T00:41:07.520Z,96920.31
2023-05-19T00:43:34.944Z,96912.06
2023-05-19T00:46:02.378Z,96890.84
2023-05-19T00:48:29.486Z,96923.22
2023-05-19T00:51:02.502Z,96904.84
2023-05-19T00:53:30.396Z,96924.28
2023-05-19T00:55:58.024Z,96906.19
2023-05-19T00:58:29.370Z,96900.78
2023-05-19T01:01:08.007Z,96920.66
2023-05-19T01:03:36.519Z,96920.09
2023-05-19T01:06:07.541Z,96921.34
2023-05-19T01:08:37.399Z,96911.97
2023-05-19T01:11:08.402Z,96896.00
2023-05-19T01:13:36.703Z,96917.63
2023-05-19T01:16:22.704Z,96909.78
2023-05-19T01:19:11.098Z,96915.97
2023-05-19T01:22:07.076Z,96910.69
2023-05-19T01:24:55.353Z,96910.50
2023-05-19T01:27:39.472Z,96906.91
2023-05-19T01:30:32.493Z,96914.84
2023-05-19T01:33:06.959Z,96906.38
2023-05-19T01:35:36.937Z,96912.50
2023-05-19T01:38:05.469Z,96886.44
2023-05-19T01:40:34.797Z,96865.72
2023-05-19T01:43:02.478Z,96891.09
2023-05-19T01:45:31.451Z,96906.19
2023-05-19T01:48:01.084Z,96888.91
2023-05-19T01:50:28.805Z,96909.09
2023-05-19T01:52:56.099Z,96898.13
2023-05-19T01:55:24.016Z,96907.38
2023-05-19T01:58:23.587Z,96907.38
2023-05-19T02:01:03.330Z,96843.31
2023-05-19T02:03:45.543Z,96909.78
2023-05-19T02:06:31.360Z,96901.72
2023-05-19T02:09:22.455Z,96885.50
2023-05-19T02:12:10.541Z,96880.34
2023-05-19T02:15:10.847Z,96897.94
2023-05-19T02:17:42.398Z,96869.91
2023-05-19T02:20:10.949Z,96892.56
2023-05-19T02:22:37.938Z,96873.75
2023-05-19T02:25:05.274Z,96859.56
2023-05-19T02:27:34.526Z,96898.06
2023-05-19T02:30:06.784Z,96896.03
2023-05-19T02:32:33.778Z,96891.72
2023-05-19T02:35:00.743Z,96883.28
2023-05-19T02:37:28.754Z,96864.31
2023-05-19T02:39:55.791Z,96893.72
2023-05-19T02:42:22.837Z,96874.72
2023-05-19T02:44:50.023Z,96855.06
2023-05-19T02:47:17.622Z,96894.50
2023-05-19T02:49:45.256Z,96885.75
2023-05-19T02:52:12.443Z,96888.13
2023-05-19T02:54:40.096Z,96866.94
2023-05-19T02:57:07.311Z,96834.56
2023-05-19T02:59:34.338Z,96853.66
2023-05-19T03:02:02.691Z,96853.19
2023-05-19T03:04:31.670Z,96854.28
2023-05-19T03:06:58.649Z,96866.53
2023-05-19T03:09:25.655Z,96866.25
2023-05-19T03:11:52.726Z,96863.94
2023-05-19T03:14:24.251Z,96848.53
2023-05-19T03:16:51.891Z,96857.03
2023-05-19T03:19:19.038Z,96864.38
2023-05-19T03:21:46.575Z,96867.03
2023-05-19T03:24:13.921Z,96854.16
2023-05-19T03:26:41.286Z,96870.44
2023-05-19T03:29:08.533Z,96869.78
2023-05-19T03:31:37.201Z,96876.41
2023-05-19T03:34:05.115Z,96854.41
2023-05-19T03:36:40.061Z,96863.38
2023-05-19T03:39:12.349Z,96885.38
2023-05-19T03:41:39.654Z,96842.94
2023-05-19T03:44:06.743Z,96857.53
2023-05-19T03:46:33.690Z,96884.31
2023-05-19T03:49:26.152Z,96869.78
2023-05-19T03:52:03.593Z,96881.28
2023-05-19T03:54:36.440Z,96888.47
2023-05-19T03:57:03.390Z,96882.94
2023-05-19T03:59:30.506Z,96867.25
2023-05-19T04:01:58.351Z,96871.34
2023-05-19T04:04:26.861Z,96888.47
2023-05-19T04:06:53.792Z,96883.03
2023-05-19T04:09:20.914Z,96869.97
2023-05-19T04:11:47.787Z,96913.72
2023-05-19T04:14:14.682Z,96896.38
2023-05-19T04:16:43.529Z,96890.91
2023-05-19T04:19:10.444Z,96877.56
2023-05-19T04:21:37.362Z,96887.22
2023-05-19T04:24:06.676Z,96875.06
2023-05-19T04:26:34.736Z,96900.97
2023-05-19T04:29:05.172Z,96913.47
2023-05-19T04:31:34.611Z,96905.41
2023-05-19T04:34:02.826Z,96875.91
2023-05-19T04:36:29.725Z,96896.50
2023-05-19T04:39:02.637Z,96889.97
2023-05-19T04:41:30.640Z,96891.06
2023-05-19T04:43:57.862Z,96905.44
2023-05-19T04:46:26.277Z,96901.22
2023-05-19T04:48:57.366Z,96908.38
2023-05-19T04:51:30.310Z,96898.44
2023-05-19T04:54:00.124Z,96919.25
2023-05-19T04:56:27.624Z,96908.84
2023-05-19T04:58:55.339Z,96899.88
2023-05-19T05:01:26.595Z,96892.63
2023-05-19T05:03:55.696Z,96881.16
2023-05-19T05:06:23.032Z,96908.38
2023-05-19T05:08:50.236Z,96885.72
2023-05-19T05:11:20.966Z,96889.56
2023-05-19T05:13:48.236Z,96868.16
2023-05-19T05:16:16.043Z,96898.38
2023-05-19T05:18:44.919Z,96855.75
2023-05-19T05:21:12.769Z,96885.88
2023-05-19T05:23:40.842Z,96897.41
2023-05-19T05:26:16.860Z,96901.31
2023-05-19T05:28:44.339Z,96906.91
2023-05-19T05:31:11.297Z,96873.47
2023-05-19T05:33:39.376Z,96886.88
2023-05-19T05:36:06.877Z,96905.94
2023-05-19T05:38:34.266Z,96905.28
2023-05-19T05:41:02.850Z,96869.81
2023-05-19T05:43:30.672Z,96887.88
2023-05-19T05:46:00.654Z,96903.94
2023-05-19T05:48:28.034Z,96872.09
2023-05-19T05:50:56.980Z,96904.78
2023-05-19T05:53:32.512Z,96913.38
2023-05-19T05:56:01.559Z,96886.28
2023-05-19T05:58:37.960Z,96881.63
2023-05-19T06:01:05.697Z,96888.72
2023-05-19T06:03:33.781Z,96894.38
2023-05-19T06:06:05.926Z,96900.78
2023-05-19T06:08:34.567Z,96894.72
2023-05-19T06:11:01.697Z,96917.91
2023-05-19T06:13:30.205Z,96907.94
2023-05-19T06:15:57.500Z,96882.13
2023-05-19T06:18:30.803Z,96876.81
2023-05-19T06:20:57.823Z,96888.19
2023-05-19T06:23:26.992Z,96890.31
2023-05-19T06:25:54.104Z,96903.88
2023-05-19T06:28:21.219Z,96904.69
2023-05-19T06:30:49.920Z,96884.81
2023-05-19T06:33:31.262Z,96881.06
2023-05-19T06:35:58.286Z,96907.53
2023-05-19T06:38:25.393Z,96874.84
2023-05-19T06:40:52.418Z,96901.22
2023-05-19T06:43:19.302Z,96890.69
2023-05-19T06:45:53.691Z,96897.22
2023-05-19T06:48:21.833Z,96898.69
2023-05-19T06:50:48.835Z,96871.41
2023-05-19T06:53:17.382Z,96883.63
2023-05-19T06:55:57.496Z,96905.28
2023-05-19T06:58:27.395Z,96888.06
2023-05-19T07:00:54.751Z,96898.22
2023-05-19T07:03:22.433Z,96889.31
2023-05-19T07:05:49.606Z,96904.66
2023-05-19T07:08:16.620Z,96887.22
2023-05-19T07:10:44.036Z,96869.63
2023-05-19T07:13:13.498Z,96900.63
2023-05-19T07:15:41.405Z,96901.72
2023-05-19T07:18:08.334Z,96902.97
2023-05-19T07:20:36.028Z,96895.28
2023-05-19T07:23:05.473Z,96903.25
2023-05-19T07:25:33.480Z,96871.47
2023-05-19T07:28:00.870Z,96875.16
2023-05-19T07:30:29.141Z,96874.34
2023-05-19T07:32:56.119Z,96884.75
2023-05-19T07:35:23.234Z,96888.16
2023-05-19T07:37:51.884Z,96886.16
2023-05-19T07:40:19.088Z,96884.81
2023-05-19T07:42:46.097Z,96871.22
2023-05-19T07:45:13.053Z,96850.31
2023-05-19T07:47:40.006Z,96852.88
2023-05-19T07:50:07.594Z,96848.59
2023-05-19T07:52:34.530Z,96841.13
2023-05-19T07:55:01.395Z,96870.13
2023-05-19T07:57:28.387Z,96846.69
2023-05-19T07:59:55.298Z,96850.06
2023-05-19T08:02:22.244Z,96840.28
2023-05-19T08:04:49.660Z,96863.69
2023-05-19T08:07:16.652Z,96860.81
2023-05-19T08:09:43.839Z,96850.06
2023-05-19T08:12:10.724Z,96861.53
2023-05-19T08:14:37.666Z,96857.72
2023-05-19T08:17:05.181Z,96868.09
2023-05-19T08:19:32.341Z,96858.53
2023-05-19T08:22:01.396Z,96866.63
2023-05-19T08:24:32.977Z,96867.19
2023-05-19T08:27:00.222Z,96861.56
2023-05-19T08:29:27.281Z,96845.28
2023-05-19T08:31:54.277Z,96855.81
2023-05-19T08:34:21.227Z,96825.88
2023-05-19T08:36:48.606Z,96833.56
2023-05-19T08:39:16.851Z,96849.50
2023-05-19T08:41:44.166Z,96816.09
2023-05-19T08:44:11.048Z,96833.81
2023-05-19T08:46:38.097Z,96841.88
2023-05-19T08:49:13.503Z,96840.28
2023-05-19T08:51:56.168Z,96848.78
2023-05-19T08:54:28.838Z,96846.97
2023-05-19T08:56:56.187Z,96838.56
2023-05-19T08:59:23.199Z,96821.13
2023-05-19T09:01:50.855Z,96819.00
2023-05-19T09:04:17.921Z,96848.09
2023-05-19T09:06:45.587Z,96838.88
2023-05-19T09:09:12.771Z,96828.72
2023-05-19T09:11:39.775Z,96826.75
2023-05-19T09:14:06.737Z,96810.88
2023-05-19T09:16:34.323Z,96798.94
2023-05-19T09:19:01.514Z,96828.03
2023-05-19T09:21:31.434Z,96810.00
2023-05-19T09:24:03.985Z,96813.91
2023-05-19T09:26:42.132Z,96817.72
2023-05-19T09:29:18.921Z,96809.97
2023-05-19T09:31:54.720Z,96791.69
2023-05-19T09:34:25.046Z,96814.00
2023-05-19T09:36:53.810Z,96827.66
2023-05-19T09:39:22.815Z,96805.13
2023-05-19T09:41:54.723Z,96814.84
2023-05-19T09:44:23.401Z,96819.72
2023-05-19T09:46:52.177Z,96812.22
2023-05-19T09:49:21.107Z,96809.59
2023-05-19T09:52:02.468Z,96806.06
2023-05-19T09:54:32.619Z,96809.16
2023-05-19T09:57:01.203Z,96806.19
2023-05-19T09:59:32.373Z,96805.66
2023-05-19T10:02:01.692Z,96777.91
2023-05-19T10:04:30.171Z,96805.06
2023-05-19T10:07:05.732Z,96788.03
2023-05-19T10:09:34.359Z,96773.53
2023-05-19T10:12:02.686Z,96791.31
2023-05-19T10:14:30.310Z,96782.84
2023-05-19T10:16:59.130Z,96779.09
2023-05-19T10:19:28.251Z,96759.88
2023-05-19T10:21:56.212Z,96752.81
2023-05-19T10:24:23.176Z,96748.59
2023-05-19T10:26:52.488Z,96740.84
2023-05-19T10:29:25.495Z,96757.59
2023-05-19T10:31:53.596Z,96771.34
2023-05-19T10:34:22.326Z,96762.50
2023-05-19T10:36:56.456Z,96762.88
2023-05-19T10:39:29.954Z,96732.63
2023-05-19T10:42:02.656Z,96760.56
2023-05-19T10:44:44.713Z,96767.97
2023-05-19T10:47:12.683Z,96746.97
2023-05-19T10:49:40.378Z,96766.78
2023-05-19T10:52:26.315Z,96755.06
2023-05-19T10:54:54.950Z,96756.56
2023-05-19T10:57:28.610Z,96729.00
2023-05-19T10:59:57.509Z,96759.00
2023-05-19T11:02:38.109Z,96738.13
2023-05-19T11:05:16.948Z,96749.31
2023-05-19T11:08:06.334Z,96746.38
2023-05-19T11:10:33.464Z,96740.94
2023-05-19T11:13:01.068Z,96754.88
2023-05-19T11:15:28.486Z,96745.97
2023-05-19T11:17:55.803Z,96740.34
2023-05-19T11:20:27.517Z,96738.78
2023-05-19T11:23:14.779Z,96724.50
2023-05-19T11:25:42.383Z,96747.41
2023-05-19T11:28:12.762Z,96734.88
2023-05-19T11:30:42.577Z,96744.78
2023-05-19T11:33:10.828Z,96733.09
2023-05-19T11:35:38.787Z,96717.84
2023-05-19T11:38:07.390Z,96739.88
2023-05-19T11:40:34.328Z,96729.31
2023-05-19T11:43:02.148Z,96682.75
2023-05-19T11:45:33.399Z,96716.50
2023-05-19T11:48:03.559Z,96731.63
2023-05-19T11:50:32.413Z,96730.28
2023-05-19T11:53:01.225Z,96730.13
2023-05-19T11:55:29.000Z,96713.66
2023-05-19T11:58:03.830Z,96724.84
2023-05-19T12:00:39.880Z,96721.50
2023-05-19T12:03:08.399Z,96723.03
2023-05-19T12:05:44.477Z,96703.56
2023-05-19T12:08:12.353Z,96720.44
2023-05-19T12:10:40.393Z,96711.53
2023-05-19T12:13:11.225Z,96705.28
2023-05-19T12:15:39.228Z,96710.13
2023-05-19T12:18:06.903Z,96715.44
2023-05-19T12:20:36.288Z,96712.13
2023-05-19T12:23:04.227Z,96685.66
2023-05-19T12:25:32.056Z,96690.69
2023-05-19T12:28:01.118Z,96720.41
2023-05-19T12:30:29.349Z,96691.69
2023-05-19T12:33:00.063Z,96717.38
2023-05-19T12:35:33.587Z,96706.38
2023-05-19T12:38:05.067Z,96717.09
2023-05-19T12:40:35.063Z,96698.59
2023-05-19T12:43:03.040Z,96701.28
2023-05-19T12:45:34.707Z,96697.72
2023-05-19T12:48:16.228Z,96716.81
2023-05-19T12:50:45.264Z,96708.78
2023-05-19T12:53:13.221Z,96708.44
2023-05-19T12:55:44.540Z,96691.75
2023-05-19T12:58:12.511Z,96685.94
2023-05-19T13:00:45.213Z,96699.88
2023-05-19T13:03:30.621Z,96669.75
2023-05-19T13:05:59.880Z,96680.44
2023-05-19T13:08:27.992Z,96682.91
2023-05-19T13:10:56.319Z,96690.38
2023-05-19T13:13:23.230Z,96690.59
2023-05-19T13:15:50.123Z,96694.81
2023-05-19T13:18:18.090Z,96705.03
2023-05-19T13:20:45.778Z,96674.88
2023-05-19T13:23:13.750Z,96696.00
2023-05-19T13:25:41.692Z,96695.63
2023-05-19T13:28:09.310Z,96708.88
2023-05-19T13:30:38.788Z,96698.78
2023-05-19T13:33:06.234Z,96666.84
2023-05-19T13:35:37.817Z,96682.13
2023-05-19T13:38:10.492Z,96687.13
2023-05-19T13:40:38.388Z,96697.31
2023-05-19T13:43:05.372Z,96680.56
2023-05-19T13:45:32.326Z,96672.31
2023-05-19T13:47:59.280Z,96682.59
2023-05-19T13:50:26.643Z,96650.69
2023-05-19T13:52:54.268Z,96658.59
2023-05-19T13:55:21.752Z,96678.16
2023-05-19T13:57:48.741Z,96675.84
2023-05-19T14:00:16.078Z,96689.66
2023-05-19T14:02:43.318Z,96683.03
2023-05-19T14:05:10.432Z,96689.81
2023-05-19T14:07:37.403Z,96671.63
2023-05-19T14:10:08.098Z,96683.13
2023-05-19T14:12:49.447Z,96702.25
2023-05-19T14:15:23.176Z,96700.81
2023-05-19T14:17:50.164Z,96688.06
2023-05-19T14:20:17.244Z,96680.59
2023-05-19T14:22:44.116Z,96668.06
2023-05-19T14:25:11.239Z,96684.47
2023-05-19T14:27:40.402Z,96684.28
2023-05-19T14:30:08.214Z,96690.53
2023-05-19T14:32:35.292Z,96683.53
2023-05-19T14:35:02.600Z,96678.81
2023-05-19T14:37:29.574Z,96668.34
2023-05-19T14:39:57.876Z,96682.56
2023-05-19T14:42:25.337Z,96679.47
2023-05-19T14:44:52.319Z,96670.00
2023-05-19T14:47:22.018Z,96686.53
2023-05-19T14:49:48.936Z,96694.78
2023-05-19T14:52:16.034Z,96666.41
2023-05-19T14:54:42.923Z,96673.41
2023-05-19T14:57:09.810Z,96684.84
2023-05-19T14:59:39.860Z,96686.56
2023-05-19T15:02:07.399Z,96684.91
2023-05-19T15:04:34.306Z,96672.28
2023-05-19T15:09:31.217Z,96680.31
2023-05-19T15:11:58.297Z,96673.34
2023-05-19T15:14:26.183Z,96669.13
2023-05-19T15:16:54.123Z,96658.69
2023-05-19T15:19:21.162Z,96658.63
2023-05-19T15:21:50.136Z,96683.84
2023-05-19T15:24:17.040Z,96667.13
2023-05-19T15:26:43.997Z,96689.38
2023-05-19T15:29:11.019Z,96682.19
2023-05-19T15:31:38.446Z,96655.47
2023-05-19T15:34:05.599Z,96656.16
2023-05-19T15:36:32.499Z,96656.03
2023-05-19T15:39:18.535Z,96664.41
2023-05-19T15:41:55.514Z,96663.91
2023-05-19T15:44:22.440Z,96659.66
2023-05-19T15:46:49.418Z,96666.63
2023-05-19T15:49:18.134Z,96678.69
2023-05-19T15:51:45.382Z,96641.94
2023-05-19T15:54:12.360Z,96662.16
2023-05-19T15:56:39.290Z,96648.94
2023-05-19T15:59:06.189Z,96654.56
2023-05-19T16:01:33.322Z,96667.44
2023-05-19T16:04:02.407Z,96668.59
2023-05-19T16:06:30.264Z,96645.50
2023-05-19T16:08:57.233Z,96668.22
2023-05-19T16:11:24.131Z,96666.22
2023-05-19T16:13:51.006Z,96673.69
2023-05-19T16:16:19.000Z,96643.41
2023-05-19T16:18:45.941Z,96665.00
2023-05-19T16:21:13.066Z,96663.69
2023-05-19T16:23:39.922Z,96654.38
2023-05-19T16:26:09.522Z,96652.09
2023-05-19T16:28:36.455Z,96626.88
2023-05-19T16:31:03.554Z,96670.63
2023-05-19T16:33:30.574Z,96658.56
2023-05-19T16:35:58.795Z,96637.31
2023-05-19T16:38:26.871Z,96605.41
2023-05-19T16:40:53.777Z,96643.00
2023-05-19T16:43:20.700Z,96632.50
2023-05-19T16:45:47.925Z,96633.31
2023-05-19T16:48:14.866Z,96634.50
2023-05-19T16:50:41.796Z,96654.34
2023-05-19T16:53:08.720Z,96645.75
2023-05-19T16:55:35.685Z,96653.81
2023-05-19T16:58:02.626Z,96643.00
2023-05-19T17:00:30.044Z,96647.81
2023-05-19T17:02:57.112Z,96602.06
2023-05-19T17:05:24.267Z,96651.09
2023-05-19T17:07:51.297Z,96653.47
2023-05-19T17:10:18.390Z,96658.53
2023-05-19T17:12:45.494Z,96653.00
2023-05-19T17:15:12.462Z,96615.31
2023-05-19T17:17:39.566Z,96625.69
2023-05-19T17:20:07.208Z,96648.06
2023-05-19T17:22:34.153Z,96630.19
2023-05-19T17:25:01.108Z,96638.81
2023-05-19T17:27:28.064Z,96634.38
2023-05-19T17:29:55.029Z,96620.59
2023-05-19T17:32:28.480Z,96663.09
2023-05-19T17:34:55.916Z,96648.28
2023-05-19T17:37:25.837Z,96644.69
2023-05-19T17:39:53.030Z,96655.47
2023-05-19T17:42:19.989Z,96647.06
2023-05-19T17:44:46.984Z,96647.94
2023-05-19T17:47:13.868Z,96659.25
2023-05-19T17:49:41.657Z,96669.28
2023-05-19T17:52:09.513Z,96636.56
2023-05-19T17:54:39.432Z,96663.88
2023-05-19T17:57:12.788Z,96636.47
2023-05-19T17:59:39.930Z,96652.72
2023-05-19T18:02:08.114Z,96657.53
2023-05-19T18:04:35.483Z,96656.84
2023-05-19T18:07:03.787Z,96646.81
2023-05-19T18:09:31.706Z,96636.19
2023-05-19T18:12:02.429Z,96661.00
2023-05-19T18:14:29.617Z,96640.28
2023-05-19T18:16:56.754Z,96669.22
2023-05-19T18:19:23.912Z,96667.69
2023-05-19T18:21:51.115Z,96674.38
2023-05-19T18:24:18.100Z,96672.56
2023-05-19T18:26:45.009Z,96657.22
2023-05-19T18:29:12.005Z,96632.38
2023-05-19T18:31:39.057Z,96660.78
2023-05-19T18:34:06.116Z,96643.63
2023-05-19T18:36:33.143Z,96643.19
2023-05-19T18:39:00.406Z,96642.94
2023-05-19T18:41:27.662Z,96660.72
2023-05-19T18:43:54.938Z,96651.44
2023-05-19T18:46:22.090Z,96640.75
2023-05-19T18:48:50.938Z,96643.75
2023-05-19T18:51:20.039Z,96654.19
2023-05-19T18:53:49.657Z,96640.34
2023-05-19T18:56:26.853Z,96652.06
2023-05-19T18:58:55.072Z,96652.06
2023-05-19T19:01:22.046Z,96655.72
2023-05-19T19:03:49.689Z,96659.31
2023-05-19T19:06:23.593Z,96650.56
2023-05-19T19:08:50.677Z,96652.22
2023-05-19T19:11:17.744Z,96646.34
2023-05-19T19:13:44.863Z,96661.59
2023-05-19T19:16:11.894Z,96665.72
2023-05-19T19:18:38.958Z,96644.03
2023-05-19T19:21:06.179Z,96646.59
2023-05-19T19:23:34.368Z,96652.88
2023-05-19T19:26:02.207Z,96648.34
2023-05-19T19:28:29.176Z,96674.78
2023-05-19T19:30:56.417Z,96652.78
2023-05-19T19:33:23.499Z,96663.72
2023-05-19T19:35:50.472Z,96666.63
2023-05-19T19:38:17.910Z,96677.34
2023-05-19T19:40:44.846Z,96672.69
2023-05-19T19:43:11.857Z,96673.91
2023-05-19T19:45:41.890Z,96678.66
2023-05-19T19:48:08.870Z,96677.56
2023-05-19T19:50:35.966Z,96667.50
2023-05-19T19:53:02.934Z,96665.38
2023-05-19T19:55:31.071Z,96645.84
2023-05-19T19:57:58.059Z,96634.13
2023-05-19T20:00:25.059Z,96652.88
2023-05-19T20:03:04.454Z,96670.59
2023-05-19T20:05:32.528Z,96666.50
2023-05-19T20:07:59.695Z,96674.91
2023-05-19T20:10:26.701Z,96652.59
2023-05-19T20:12:53.715Z,96614.44
2023-05-19T20:15:20.751Z,96672.81
2023-05-19T20:17:47.736Z,96652.34
2023-05-19T20:20:14.954Z,96653.22
2023-05-19T20:22:41.999Z,96669.81
2023-05-19T20:25:09.285Z,96658.41
2023-05-19T20:27:36.290Z,96678.09
2023-05-19T20:30:03.400Z,96668.50
2023-05-19T20:32:30.357Z,96669.38
2023-05-19T20:34:57.463Z,96661.75
2023-05-19T20:37:24.441Z,96643.94
2023-05-19T20:39:51.451Z,96665.84
2023-05-19T20:42:18.349Z,96645.03
2023-05-19T20:44:45.326Z,96649.69
2023-05-19T20:47:12.276Z,96636.41
2023-05-19T20:49:39.306Z,96657.44
2023-05-19T20:52:06.574Z,96654.22
2023-05-19T20:54:33.498Z,96668.50
2023-05-19T20:57:00.532Z,96657.88
2023-05-19T20:59:27.509Z,96644.78
2023-05-19T21:01:54.482Z,96652.66
2023-05-19T21:04:21.710Z,96640.41
2023-05-19T21:06:48.775Z,96664.84
2023-05-19T21:09:15.877Z,96634.19
2023-05-19T21:11:42.813Z,96661.94
2023-05-19T21:14:09.753Z,96645.81
2023-05-19T21:16:39.034Z,96662.72
2023-05-19T21:19:09.080Z,96641.50
2023-05-19T21:21:36.473Z,96662.06
2023-05-19T21:24:03.506Z,96628.22
2023-05-19T21:26:30.416Z,96663.63
2023-05-19T21:28:57.374Z,96629.22
2023-05-19T21:31:24.334Z,96664.28
2023-05-19T21:33:51.499Z,96654.97
2023-05-19T21:36:18.710Z,96633.66
2023-05-19T21:38:45.747Z,96630.56
2023-05-19T21:41:12.694Z,96658.66
2023-05-19T21:43:41.411Z,96632.66
2023-05-19T21:46:08.428Z,96640.28
2023-05-19T21:48:35.648Z,96631.34
2023-05-19T21:51:02.682Z,96646.59
2023-05-19T21:53:29.827Z,96639.16
2023-05-19T21:55:56.825Z,96655.34
2023-05-19T21:58:24.330Z,96649.69
2023-05-19T22:00:53.632Z,96657.31
2023-05-19T22:03:21.976Z,96649.16
2023-05-19T22:05:53.398Z,96633.66
2023-05-19T22:08:20.790Z,96649.91
2023-05-19T22:10:51.595Z,96638.06
2023-05-19T22:13:21.712Z,96642.16
2023-05-19T22:15:48.713Z,96625.47
2023-05-19T22:18:16.004Z,96610.00
2023-05-19T22:20:43.018Z,96626.44
2023-05-19T22:23:10.003Z,96628.56
2023-05-19T22:25:36.952Z,96622.69
2023-05-19T22:28:05.892Z,96642.69
2023-05-19T22:30:33.006Z,96622.69
2023-05-19T22:33:00.285Z,96601.25
2023-05-19T22:35:27.189Z,96643.91
2023-05-19T22:37:54.116Z,96586.09
2023-05-19T22:40:21.019Z,96604.22
2023-05-19T22:42:47.982Z,96623.72
2023-05-19T22:45:14.855Z,96638.63
2023-05-19T22:47:41.999Z,96604.47
2023-05-19T22:50:12.539Z,96600.81
2023-05-19T22:52:39.479Z,96614.41
2023-05-19T22:55:07.062Z,96611.00
2023-05-19T22:57:33.910Z,96629.13
2023-05-19T23:00:00.801Z,96630.69
2023-05-19T23:02:27.776Z,96619.81
2023-05-19T23:04:54.855Z,96600.25
2023-05-19T23:07:21.809Z,96635.97
2023-05-19T23:09:48.869Z,96628.88
2023-05-19T23:12:15.876Z,96603.03
2023-05-19T23:14:42.808Z,96610.53
2023-05-19T23:17:09.785Z,96614.53
2023-05-19T23:19:37.187Z,96583.81
2023-05-19T23:22:04.150Z,96605.03
2023-05-19T23:24:31.026Z,96602.84
2023-05-19T23:26:58.048Z,96600.50
2023-05-19T23:29:24.943Z,96599.06
2023-05-19T23:31:51.896Z,96583.91
2023-05-19T23:34:18.806Z,96579.50
2023-05-19T23:36:45.795Z,96585.78
2023-05-19T23:39:12.657Z,96599.03
2023-05-19T23:41:39.535Z,96589.19
2023-05-19T23:44:06.677Z,96569.50
2023-05-19T23:46:33.621Z,96585.44
2023-05-19T23:49:00.729Z,96600.34
2023-05-19T23:51:27.614Z,96583.78
2023-05-19T23:53:54.531Z,96599.56
2023-05-19T23:56:21.779Z,96613.28
2023-05-19T23:58:48.728Z,96576.59
